South Salem, Ohio
Current Conditions -  °F | °C
As of 4:54 AM on Sunday 23 Nov 2014 (Local Time) from KRZT Reporting Station
Overcast Overcast  
Wind Chill: 42°   Ceiling: 6000
Heat Index: 45°   Visibility: 10mi
Dew Point: 28°   Wind: 5mph
Humidity: 53%   Direction: 200°SSW
Pressure: 30.05"   Gusts: NA
Location:  39.34°N, 83.31°W
Report Text: KRZT 230954Z AUTO 20004KT 10SM BKN060 OVC090 07/M02 A3005 RMK AO2
Loading
Personal Weather Stations






























Interactive Weather Map New forecast layout! Learn more

10-Day Weather Forecast

Advertisements
Track Severe Weather on mobile